Time;durP1;ratioP1;P1;durP2;ratioP2;P2;SDS_P1;SDS_P2;PMS_P1;PMS_P2;Temp;Humidity;BMP_temperature;BMP_pressure;BME280_temperature;BME280_humidity;BME280_pressure;Samples;Min_cycle;Max_cycle;Signal;HPM_P1;HPM_P2
2022/06/10 00:00:37;;;;;;;2.85;1.80;;;14.20;68.90;;;;;;4961926;28;20091;-75
2022/06/10 00:03:03;;;;;;;3.83;2.03;;;14.10;69.00;;;;;;4964879;28;20045;-75
2022/06/10 00:05:30;;;;;;;3.22;1.73;;;14.10;69.10;;;;;;4985416;28;20049;-74
2022/06/10 00:07:55;;;;;;;4.40;1.85;;;14.10;69.10;;;;;;4980520;28;20097;-73
2022/06/10 00:10:22;;;;;;;3.10;1.67;;;14.10;69.30;;;;;;4984460;28;20037;-74
2022/06/10 00:12:48;;;;;;;4.25;2.20;;;14.00;69.40;;;;;;4979424;28;20060;-74
2022/06/10 00:15:14;;;;;;;2.22;1.77;;;14.00;69.50;;;;;;4979727;28;20422;-74
2022/06/10 00:17:39;;;;;;;2.03;1.83;;;14.00;69.60;;;;;;4978620;28;20108;-75
2022/06/10 00:20:05;;;;;;;3.55;2.22;;;13.90;69.60;;;;;;4995041;28;20091;-73
2022/06/10 00:22:31;;;;;;;2.53;1.90;;;13.90;69.60;;;;;;4978461;28;20048;-72
2022/06/10 00:24:57;;;;;;;5.07;2.30;;;13.90;69.80;;;;;;4977840;28;20038;-74
2022/06/10 00:27:22;;;;;;;4.35;2.00;;;13.80;69.70;;;;;;4966664;28;20030;-74
2022/06/10 00:29:48;;;;;;;2.83;2.08;;;13.80;69.70;;;;;;4976761;28;20042;-74
2022/06/10 00:32:14;;;;;;;3.22;2.40;;;13.80;69.90;;;;;;4982994;28;20046;-76
2022/06/10 00:34:40;;;;;;;2.80;2.05;;;13.80;70.10;;;;;;4993966;28;20034;-74
2022/06/10 00:37:07;;;;;;;2.22;2.00;;;13.70;70.00;;;;;;4976819;28;20082;-75
2022/06/10 00:39:34;;;;;;;5.10;2.20;;;13.70;70.20;;;;;;4997406;28;20056;-73
2022/06/10 00:42:00;;;;;;;4.05;2.40;;;13.70;70.40;;;;;;4996657;28;20406;-74
2022/06/10 00:44:40;;;;;;;3.28;2.35;;;13.60;70.50;;;;;;4974445;28;20061;-74
2022/06/10 00:47:19;;;;;;;3.38;1.92;;;13.60;70.80;;;;;;4983819;28;20061;-75
2022/06/10 00:49:55;;;;;;;4.57;1.90;;;13.60;70.80;;;;;;5012751;28;20102;-74
2022/06/10 00:52:24;;;;;;;3.05;1.83;;;13.50;70.80;;;;;;4993596;28;20045;-73
2022/06/10 00:54:51;;;;;;;2.63;1.70;;;13.50;70.70;;;;;;5020454;28;20050;-74
2022/06/10 00:57:19;;;;;;;3.80;2.10;;;13.50;70.70;;;;;;5002845;28;20041;-74
2022/06/10 00:59:54;;;;;;;8.60;2.38;;;13.50;70.90;;;;;;5015724;28;20054;-73
2022/06/10 01:02:23;;;;;;;2.65;2.40;;;13.40;72.00;;;;;;4955172;28;20037;-74
2022/06/10 01:04:49;;;;;;;2.28;2.08;;;13.40;71.10;;;;;;4967494;28;20038;-76
2022/06/10 01:07:17;;;;;;;4.57;2.10;;;13.40;71.20;;;;;;4988171;28;20041;-73
2022/06/10 01:09:51;;;;;;;5.13;2.10;;;13.30;71.30;;;;;;4971383;28;20125;-75
2022/06/10 01:12:30;;;;;;;2.17;1.98;;;13.30;71.20;;;;;;4985730;28;20057;-74
2022/06/10 01:15:04;;;;;;;3.53;2.20;;;13.30;71.60;;;;;;4981151;28;20041;-73
2022/06/10 01:17:40;;;;;;;2.30;1.80;;;13.20;71.30;;;;;;5009205;28;20038;-74
2022/06/10 01:20:31;;;;;;;3.78;1.80;;;13.20;71.50;;;;;;5005605;28;20073;-74
2022/06/10 01:23:19;;;;;;;1.90;1.80;;;13.20;71.60;;;;;;4999447;28;20041;-74
2022/06/10 01:25:53;;;;;;;2.20;2.00;;;13.10;71.70;;;;;;4981002;28;20065;-74
2022/06/10 01:28:37;;;;;;;3.60;2.58;;;13.10;71.60;;;;;;4985265;28;20088;-74
2022/06/10 01:31:22;;;;;;;4.45;2.00;;;13.10;71.80;;;;;;4991956;28;20042;-74
2022/06/10 01:34:14;;;;;;;2.60;1.77;;;13.00;71.50;;;;;;4974163;28;20594;-74
2022/06/10 01:37:15;;;;;;;2.53;2.33;;;13.00;72.00;;;;;;5010451;28;20446;-74
2022/06/10 01:39:56;;;;;;;2.00;1.90;;;13.00;72.00;;;;;;5016718;28;20049;-73
2022/06/10 01:42:28;;;;;;;2.55;2.00;;;13.00;71.70;;;;;;5015930;28;20038;-73
2022/06/10 01:45:10;;;;;;;2.40;2.17;;;12.90;71.80;;;;;;4982092;28;20514;-74
2022/06/10 01:47:37;;;;;;;2.50;2.28;;;12.90;72.00;;;;;;4971083;28;20117;-73
2022/06/10 01:50:05;;;;;;;2.75;2.08;;;12.90;72.00;;;;;;4998942;28;20049;-73
2022/06/10 01:52:40;;;;;;;2.65;2.25;;;12.80;72.00;;;;;;5007647;28;20072;-73
2022/06/10 01:55:15;;;;;;;3.15;1.92;;;12.80;72.30;;;;;;4992611;28;20562;-74
2022/06/10 01:58:08;;;;;;;2.47;1.92;;;12.80;72.10;;;;;;4964275;28;20096;-75
2022/06/10 02:00:34;;;;;;;2.45;2.08;;;12.80;72.50;;;;;;5009872;28;20034;-74
2022/06/10 02:03:09;;;;;;;2.03;1.92;;;12.70;72.10;;;;;;4987702;28;20039;-74
2022/06/10 02:05:37;;;;;;;2.35;2.00;;;12.70;72.30;;;;;;5001363;28;20650;-75
2022/06/10 02:08:14;;;;;;;2.45;2.25;;;12.70;72.30;;;;;;5008125;28;20423;-74
2022/06/10 02:11:10;;;;;;;2.78;2.30;;;12.60;72.50;;;;;;4968279;28;20034;-73
2022/06/10 02:13:56;;;;;;;3.92;2.85;;;12.60;72.70;;;;;;4972744;28;20054;-74
2022/06/10 02:16:26;;;;;;;4.72;2.40;;;12.60;72.80;;;;;;4991248;28;20060;-73
2022/06/10 02:19:01;;;;;;;2.38;2.15;;;12.60;72.70;;;;;;4963405;28;20069;-74
2022/06/10 02:21:28;;;;;;;4.43;2.40;;;12.50;72.50;;;;;;4987164;28;20124;-75
2022/06/10 02:24:00;;;;;;;3.17;2.63;;;12.50;72.70;;;;;;4985189;28;20030;-75
2022/06/10 02:26:26;;;;;;;2.67;2.13;;;12.50;72.90;;;;;;4969544;28;20122;-74
2022/06/10 02:28:53;;;;;;;2.83;2.28;;;12.40;72.80;;;;;;5013154;28;20041;-74
2022/06/10 02:31:24;;;;;;;4.60;2.70;;;12.40;73.00;;;;;;5013337;28;20033;-74
2022/06/10 02:33:49;;;;;;;2.08;1.90;;;12.40;73.00;;;;;;5016535;28;20049;-74
2022/06/10 02:36:22;;;;;;;3.03;2.30;;;12.40;73.00;;;;;;4984536;28;20134;-73
2022/06/10 02:39:15;;;;;;;7.20;2.58;;;12.30;73.10;;;;;;4988817;28;20050;-75
2022/06/10 02:41:59;;;;;;;2.47;2.03;;;12.30;73.50;;;;;;4983551;28;20027;-74
2022/06/10 02:44:32;;;;;;;3.67;2.05;;;12.30;73.40;;;;;;4973368;28;20113;-73
2022/06/10 02:47:09;;;;;;;2.65;2.03;;;12.20;73.40;;;;;;4997468;28;20035;-73
2022/06/10 02:49:35;;;;;;;2.25;1.88;;;12.20;73.50;;;;;;5019143;28;20041;-74
2022/06/10 02:52:01;;;;;;;3.20;1.90;;;12.20;73.40;;;;;;4998702;28;20041;-74
2022/06/10 02:54:30;;;;;;;1.90;1.80;;;12.20;73.50;;;;;;4988841;28;20800;-74
2022/06/10 02:56:56;;;;;;;3.35;2.00;;;12.10;73.50;;;;;;4987517;28;20054;-73
2022/06/10 03:30:21;;;;;;;2.90;2.30;;;11.80;74.00;;;;;;4991312;28;20041;-74
2022/06/10 03:33:04;;;;;;;3.30;2.28;;;11.80;73.80;;;;;;4982552;28;20164;-75
2022/06/10 03:35:33;;;;;;;2.78;2.33;;;11.80;74.10;;;;;;5010798;28;20048;-75
2022/06/10 03:38:01;;;;;;;4.50;2.75;;;11.70;74.00;;;;;;4941350;28;20045;-74
2022/06/10 03:40:27;;;;;;;2.88;2.08;;;11.70;74.10;;;;;;4981812;28;20034;-74
2022/06/10 03:42:55;;;;;;;2.70;2.50;;;11.70;74.20;;;;;;5001373;28;20037;-73
2022/06/10 03:45:24;;;;;;;4.65;2.15;;;11.70;74.40;;;;;;4974452;28;20045;-76
2022/06/10 03:47:50;;;;;;;2.25;2.05;;;11.70;74.40;;;;;;4976399;28;20037;-74
2022/06/10 03:50:17;;;;;;;3.05;2.30;;;11.70;74.40;;;;;;5011470;28;20068;-73
2022/06/10 03:52:44;;;;;;;2.45;2.25;;;11.70;74.60;;;;;;4977755;28;20048;-74
2022/06/10 03:55:13;;;;;;;6.20;2.80;;;11.60;74.50;;;;;;4969734;28;20040;-75
2022/06/10 03:57:38;;;;;;;3.33;2.22;;;11.60;74.60;;;;;;4993850;28;20061;-73
2022/06/10 04:00:04;;;;;;;4.38;2.10;;;11.60;74.70;;;;;;4986950;28;20039;-74
2022/06/10 04:02:30;;;;;;;2.80;2.50;;;11.60;74.90;;;;;;4975912;28;20116;-74
2022/06/10 04:04:55;;;;;;;3.38;2.47;;;11.60;74.90;;;;;;5000684;28;20081;-73
2022/06/10 04:07:21;;;;;;;3.38;2.67;;;11.60;74.90;;;;;;4987413;28;20076;-73
2022/06/10 04:09:47;;;;;;;5.28;2.63;;;11.50;74.90;;;;;;4984286;28;20129;-74
2022/06/10 04:12:13;;;;;;;4.03;3.13;;;11.50;75.00;;;;;;4982624;28;20041;-71
2022/06/10 04:14:39;;;;;;;4.45;2.75;;;11.50;75.10;;;;;;4968641;28;20042;-72
2022/06/10 04:17:05;;;;;;;5.03;2.85;;;11.50;75.30;;;;;;4970644;28;20642;-74
2022/06/10 04:19:30;;;;;;;3.35;2.60;;;11.50;75.30;;;;;;4998157;28;20541;-74
2022/06/10 04:21:56;;;;;;;3.28;2.78;;;11.50;75.40;;;;;;5006200;28;20041;-73
2022/06/10 04:24:21;;;;;;;3.40;2.75;;;11.50;75.50;;;;;;4974424;28;20030;-74
2022/06/10 04:26:47;;;;;;;2.83;2.58;;;11.60;75.60;;;;;;4978981;28;20081;-73
2022/06/10 04:29:13;;;;;;;4.22;3.05;;;11.50;75.60;;;;;;5003010;28;20403;-73
2022/06/10 04:31:39;;;;;;;2.85;2.40;;;11.50;75.80;;;;;;5038945;28;20036;-74
2022/06/10 04:34:04;;;;;;;4.47;2.58;;;11.60;75.90;;;;;;5003027;28;20021;-73
2022/06/10 04:36:30;;;;;;;3.95;3.10;;;11.60;75.90;;;;;;5023752;28;20033;-74
2022/06/10 04:38:55;;;;;;;3.15;2.85;;;11.60;76.00;;;;;;5021004;28;20093;-73
2022/06/10 04:41:21;;;;;;;4.85;3.00;;;11.60;76.10;;;;;;5014574;28;20029;-74
2022/06/10 04:43:46;;;;;;;4.13;2.78;;;11.60;76.30;;;;;;5002533;28;20061;-74
2022/06/10 04:46:20;;;;;;;4.57;3.25;;;11.60;76.90;;;;;;5036195;28;20056;-73
2022/06/10 04:48:45;;;;;;;4.45;3.30;;;11.60;76.80;;;;;;5011346;28;20066;-73
2022/06/10 04:51:11;;;;;;;6.07;3.60;;;11.70;77.00;;;;;;4989275;28;20104;-74
2022/06/10 04:53:38;;;;;;;3.38;3.08;;;11.70;77.10;;;;;;5034667;28;20107;-74
2022/06/10 04:56:03;;;;;;;5.63;3.45;;;11.70;77.20;;;;;;5002270;28;20061;-73
2022/06/10 04:58:29;;;;;;;5.50;3.95;;;11.70;77.40;;;;;;4993957;28;20041;-74
2022/06/10 05:00:54;;;;;;;4.35;3.45;;;11.80;77.70;;;;;;4988335;28;20065;-74
2022/06/10 05:03:20;;;;;;;5.22;3.95;;;11.80;77.90;;;;;;5022128;28;20045;-75
2022/06/10 05:05:45;;;;;;;4.47;3.40;;;11.90;78.00;;;;;;5009676;28;20037;-74
2022/06/10 05:08:12;;;;;;;3.65;3.35;;;11.90;77.90;;;;;;4994919;28;20038;-74
2022/06/10 05:10:38;;;;;;;4.65;3.28;;;11.90;78.30;;;;;;4990071;28;20054;-74
2022/06/10 05:13:04;;;;;;;5.75;4.05;;;12.00;78.40;;;;;;5016280;28;20041;-74
2022/06/10 05:15:29;;;;;;;4.70;3.90;;;12.00;78.50;;;;;;5005598;28;20042;-73
2022/06/10 05:17:56;;;;;;;5.05;3.88;;;12.10;78.70;;;;;;5011841;28;20050;-74
2022/06/10 05:20:24;;;;;;;6.10;3.67;;;12.10;78.70;;;;;;5005525;28;20034;-75
2022/06/10 05:22:49;;;;;;;4.88;3.88;;;12.20;79.00;;;;;;5026368;28;20042;-74
2022/06/10 05:25:15;;;;;;;9.05;3.60;;;12.20;79.00;;;;;;5019992;28;20037;-74
2022/06/10 05:27:40;;;;;;;4.95;3.90;;;12.30;79.20;;;;;;5019568;28;20055;-75
2022/06/10 05:30:07;;;;;;;4.90;3.47;;;12.40;79.20;;;;;;5034069;28;20662;-73
2022/06/10 05:32:32;;;;;;;7.25;5.10;;;12.40;79.40;;;;;;5012273;28;20041;-73
2022/06/10 05:34:58;;;;;;;8.77;5.45;;;12.50;79.40;;;;;;5020114;28;20394;-73
2022/06/10 05:37:25;;;;;;;6.70;5.47;;;12.60;79.60;;;;;;5005446;28;20048;-74
2022/06/10 05:39:52;;;;;;;10.70;6.60;;;12.60;79.60;;;;;;5018813;28;20073;-73
2022/06/10 05:42:17;;;;;;;6.90;5.18;;;12.70;79.60;;;;;;4995076;28;20675;-75
2022/06/10 05:44:45;;;;;;;13.93;5.88;;;12.70;79.80;;;;;;5017944;28;20030;-74
2022/06/10 05:47:33;;;;;;;10.57;5.70;;;12.80;79.80;;;;;;5009233;28;20141;-74
2022/06/10 05:50:00;;;;;;;8.35;6.22;;;12.90;79.90;;;;;;5004904;28;20037;-74
2022/06/10 05:52:27;;;;;;;7.63;5.35;;;12.90;79.70;;;;;;5012423;28;20044;-75
2022/06/10 05:54:54;;;;;;;8.32;5.40;;;13.00;79.80;;;;;;5011966;28;20114;-74
2022/06/10 05:57:20;;;;;;;9.48;4.72;;;13.10;79.80;;;;;;5010594;28;20176;-74
2022/06/10 05:59:49;;;;;;;10.82;4.95;;;13.20;79.80;;;;;;5010739;28;20741;-74
2022/06/10 06:02:15;;;;;;;5.32;4.40;;;13.30;79.80;;;;;;5007904;28;20038;-74
2022/06/10 06:04:41;;;;;;;7.00;4.97;;;13.30;80.60;;;;;;5004544;28;20044;-74
2022/06/10 06:07:06;;;;;;;11.65;5.18;;;13.40;79.80;;;;;;4998698;28;20057;-74
2022/06/10 06:09:32;;;;;;;6.93;5.05;;;13.60;79.80;;;;;;4989753;28;20042;-73
2022/06/10 06:11:58;;;;;;;7.45;5.00;;;13.60;79.60;;;;;;4992469;28;20040;-74
2022/06/10 06:14:28;;;;;;;6.57;5.57;;;13.70;79.60;;;;;;4985494;28;20028;-74
2022/06/10 06:16:55;;;;;;;7.20;4.95;;;13.80;79.60;;;;;;5005490;28;20215;-74
2022/06/10 06:19:21;;;;;;;7.18;4.70;;;13.90;79.40;;;;;;5027744;28;20039;-74
2022/06/10 06:21:46;;;;;;;6.03;4.57;;;14.10;79.30;;;;;;4980655;28;20113;-74
2022/06/10 06:24:12;;;;;;;7.20;4.80;;;14.20;79.30;;;;;;5001980;28;20467;-74
2022/06/10 06:26:37;;;;;;;8.52;4.38;;;14.30;79.10;;;;;;4979543;28;20030;-74
2022/06/10 06:29:03;;;;;;;9.85;4.20;;;14.40;79.00;;;;;;5019427;28;20526;-75
2022/06/10 06:31:28;;;;;;;6.80;4.00;;;14.50;78.90;;;;;;5008360;28;20040;-74
2022/06/10 06:33:54;;;;;;;8.60;4.90;;;14.60;78.80;;;;;;5039562;28;20033;-74
2022/06/10 06:36:22;;;;;;;6.15;4.40;;;14.80;78.60;;;;;;5012244;28;20037;-73
2022/06/10 06:38:48;;;;;;;9.48;4.80;;;14.90;78.50;;;;;;5022721;28;20040;-74
2022/06/10 06:41:13;;;;;;;6.47;4.35;;;15.10;78.50;;;;;;4994043;28;20120;-74
2022/06/10 06:43:39;;;;;;;12.23;4.45;;;15.20;78.30;;;;;;5023184;28;20044;-73
2022/06/10 06:46:04;;;;;;;7.63;4.72;;;15.30;78.10;;;;;;5018956;28;20064;-74
2022/06/10 06:48:30;;;;;;;6.95;3.88;;;15.50;78.10;;;;;;4996928;28;20124;-74
2022/06/10 06:50:55;;;;;;;5.45;4.20;;;15.60;78.60;;;;;;5020581;28;20045;-73
2022/06/10 06:53:21;;;;;;;4.57;3.80;;;15.80;77.70;;;;;;5037112;28;20048;-74
2022/06/10 06:55:46;;;;;;;5.57;3.83;;;16.00;77.60;;;;;;4993668;28;20033;-73
2022/06/10 06:58:16;;;;;;;8.75;4.15;;;16.20;77.40;;;;;;4996859;28;20056;-75
2022/06/10 07:00:41;;;;;;;7.00;4.10;;;16.40;77.20;;;;;;5001145;28;20042;-74
2022/06/10 07:03:07;;;;;;;6.38;4.00;;;16.50;76.90;;;;;;5002406;28;20078;-73
2022/06/10 07:05:32;;;;;;;7.22;3.20;;;16.70;76.70;;;;;;4994900;28;20021;-74
2022/06/10 07:07:58;;;;;;;5.28;4.25;;;16.80;76.40;;;;;;5004938;28;20069;-74
2022/06/10 07:10:24;;;;;;;4.20;2.95;;;17.00;76.10;;;;;;4999829;28;20090;-74
2022/06/10 07:12:50;;;;;;;7.72;3.30;;;17.20;75.80;;;;;;5004155;28;20041;-74
2022/06/10 07:15:15;;;;;;;5.45;2.58;;;17.40;75.50;;;;;;5029557;28;20112;-74
2022/06/10 07:17:41;;;;;;;3.88;2.65;;;17.50;75.10;;;;;;5000969;28;20052;-74
2022/06/10 07:20:07;;;;;;;4.93;3.13;;;17.70;74.80;;;;;;5025199;28;20037;-74
2022/06/10 07:22:33;;;;;;;4.68;2.88;;;17.90;74.40;;;;;;5010022;28;20033;-75
2022/06/10 07:24:59;;;;;;;4.20;2.97;;;18.10;74.10;;;;;;5016970;28;20041;-73
2022/06/10 07:27:24;;;;;;;5.93;2.83;;;18.20;73.80;;;;;;4999648;28;20040;-74
2022/06/10 07:29:50;;;;;;;5.80;2.50;;;18.40;73.40;;;;;;5003408;28;20494;-75
2022/06/10 07:32:16;;;;;;;2.42;2.22;;;18.70;73.00;;;;;;5042438;28;20046;-75
2022/06/10 07:34:41;;;;;;;3.30;2.50;;;18.80;72.50;;;;;;5019854;28;20034;-74
2022/06/10 07:37:07;;;;;;;3.10;2.53;;;19.00;72.00;;;;;;4991034;28;20072;-74
2022/06/10 07:39:33;;;;;;;4.32;2.00;;;19.20;71.60;;;;;;5002968;28;20052;-74
2022/06/10 07:42:01;;;;;;;3.60;1.98;;;19.40;71.20;;;;;;5026728;28;20033;-76
2022/06/10 07:44:33;;;;;;;7.03;2.30;;;19.60;70.80;;;;;;5020637;28;20052;-75
2022/06/10 07:47:01;;;;;;;4.72;2.33;;;19.80;70.10;;;;;;5033584;28;20103;-75
2022/06/10 07:49:26;;;;;;;5.60;2.90;;;20.00;69.70;;;;;;5020685;28;20041;-75
2022/06/10 07:51:52;;;;;;;4.28;2.25;;;20.10;69.20;;;;;;4987048;28;20034;-74
2022/06/10 07:54:17;;;;;;;2.72;1.50;;;20.30;68.80;;;;;;5032801;28;20109;-75
2022/06/10 07:56:43;;;;;;;2.60;2.15;;;20.50;68.50;;;;;;5035983;28;20033;-75
2022/06/10 07:59:09;;;;;;;3.45;2.05;;;20.70;68.00;;;;;;4992408;28;20033;-76
2022/06/10 08:01:34;;;;;;;2.53;1.73;;;20.90;67.50;;;;;;4994021;28;20036;-75
2022/06/10 08:04:00;;;;;;;2.42;2.08;;;21.10;67.00;;;;;;5010686;28;20029;-75
2022/06/10 08:06:26;;;;;;;3.28;1.67;;;21.40;66.50;;;;;;5000333;28;20021;-75
2022/06/10 08:08:52;;;;;;;4.97;1.70;;;21.50;65.60;;;;;;5008665;28;20053;-75
2022/06/10 08:11:19;;;;;;;3.53;1.70;;;21.70;65.20;;;;;;5031493;28;20021;-77
2022/06/10 08:13:46;;;;;;;2.28;1.35;;;21.80;64.70;;;;;;4979816;28;21235;-75
2022/06/10 08:16:12;;;;;;;2.58;1.60;;;22.00;64.30;;;;;;4964667;28;20550;-74
2022/06/10 08:18:38;;;;;;;2.58;1.50;;;22.20;63.90;;;;;;4982086;28;20038;-74
2022/06/10 08:23:48;;;;;;;1.13;1.00;;;22.60;62.90;;;;;;4974483;28;20423;-75
2022/06/10 08:26:13;;;;;;;1.90;1.00;;;22.80;62.30;;;;;;4979341;28;20503;-76
2022/06/10 08:28:41;;;;;;;1.88;0.98;;;23.00;61.70;;;;;;4965927;28;20084;-76
2022/06/10 08:31:06;;;;;;;1.98;1.25;;;23.30;61.10;;;;;;4988441;28;20038;-75
2022/06/10 08:33:32;;;;;;;1.30;1.00;;;23.40;60.10;;;;;;4981157;28;20056;-75
2022/06/10 08:35:58;;;;;;;1.92;0.80;;;23.60;59.40;;;;;;4977714;28;20046;-75
2022/06/10 08:38:24;;;;;;;1.92;0.82;;;23.80;58.90;;;;;;4975276;28;20318;-75
2022/06/10 08:41:00;;;;;;;3.17;1.08;;;24.00;58.30;;;;;;4964551;28;20410;-75
2022/06/10 08:43:48;;;;;;;1.95;0.82;;;24.10;57.00;;;;;;4981462;28;20100;-76
2022/06/10 08:46:32;;;;;;;1.75;0.60;;;24.30;56.10;;;;;;4983496;28;20061;-76
2022/06/10 08:49:32;;;;;;;1.20;0.68;;;24.50;56.70;;;;;;5012863;28;20434;-76
2022/06/10 08:52:06;;;;;;;0.82;0.80;;;24.70;54.80;;;;;;4983223;28;20042;-75
2022/06/10 08:54:34;;;;;;;1.50;0.70;;;24.90;55.60;;;;;;5016581;28;20406;-76
2022/06/10 08:57:04;;;;;;;1.17;0.70;;;25.10;55.10;;;;;;4977933;28;20034;-76
2022/06/10 08:59:35;;;;;;;1.70;0.40;;;25.30;54.60;;;;;;5004974;28;20033;-75
2022/06/10 09:02:03;;;;;;;0.77;0.52;;;25.40;53.80;;;;;;4984149;28;20133;-75
2022/06/10 09:04:56;;;;;;;2.90;0.60;;;25.60;53.50;;;;;;4998039;28;20453;-75
2022/06/10 09:07:24;;;;;;;1.10;0.47;;;25.70;51.30;;;;;;5010513;28;20087;-75
2022/06/10 09:09:50;;;;;;;0.65;0.50;;;25.90;52.40;;;;;;5014703;28;20168;-75
2022/06/10 09:12:23;;;;;;;2.78;0.50;;;26.10;52.10;;;;;;5013307;28;20616;-76
2022/06/10 09:14:50;;;;;;;2.53;0.55;;;26.20;51.20;;;;;;5005538;28;20037;-75
2022/06/10 09:17:23;;;;;;;1.20;0.60;;;26.40;50.70;;;;;;5032381;28;20156;-75
2022/06/10 09:19:58;;;;;;;0.93;0.45;;;26.50;49.80;;;;;;5023878;28;20033;-76
2022/06/10 09:22:46;;;;;;;0.90;0.50;;;26.70;49.50;;;;;;5025099;28;20044;-75
2022/06/10 09:25:25;;;;;;;0.85;0.50;;;26.90;49.00;;;;;;5004908;28;20461;-75
2022/06/10 09:27:55;;;;;;;2.08;0.80;;;27.20;48.80;;;;;;5032286;28;20053;-75
2022/06/10 09:30:30;;;;;;;1.83;0.70;;;27.30;48.20;;;;;;4993051;28;20056;-75
2022/06/10 09:33:04;;;;;;;3.22;0.95;;;27.40;47.90;;;;;;5005357;28;20206;-76
2022/06/10 09:35:29;;;;;;;1.92;0.57;;;27.60;47.60;;;;;;4990214;28;20041;-76
2022/06/10 09:38:42;;;;;;;2.97;0.52;;;27.80;47.40;;;;;;5035103;28;20041;-76
2022/06/10 09:41:31;;;;;;;0.73;0.47;;;28.00;46.30;;;;;;4992669;28;20069;-75
2022/06/10 09:44:27;;;;;;;1.08;0.60;;;28.20;45.60;;;;;;5004120;28;20080;-75
2022/06/10 09:47:11;;;;;;;2.17;0.70;;;28.30;45.20;;;;;;5035366;28;20121;-77
2022/06/10 09:50:09;;;;;;;0.82;0.65;;;28.50;46.20;;;;;;4996346;28;20098;-76
2022/06/10 09:52:48;;;;;;;2.08;0.50;;;28.70;44.70;;;;;;4984539;28;20477;-77
2022/06/10 09:55:21;;;;;;;1.92;0.63;;;28.90;44.70;;;;;;5014162;28;20049;-76
2022/06/10 09:57:53;;;;;;;3.55;0.57;;;29.10;44.50;;;;;;5002656;28;20034;-77
2022/06/10 10:00:33;;;;;;;1.45;0.68;;;29.20;44.90;;;;;;5002101;28;20052;-76
2022/06/10 10:03:07;;;;;;;2.55;0.80;;;29.40;43.90;;;;;;5018445;28;20112;-76
2022/06/10 10:06:03;;;;;;;2.80;0.82;;;29.50;44.00;;;;;;5011696;28;20040;-77
2022/06/10 10:08:37;;;;;;;6.55;0.80;;;29.70;43.20;;;;;;5003217;28;20030;-77
2022/06/10 10:11:15;;;;;;;0.85;0.68;;;30.00;43.40;;;;;;5017573;28;20113;-76
2022/06/10 10:14:04;;;;;;;0.55;0.55;;;30.00;43.20;;;;;;4998808;28;20041;-76
2022/06/10 10:16:36;;;;;;;3.15;0.75;;;30.20;42.10;;;;;;4990523;28;20125;-76
2022/06/10 10:19:17;;;;;;;0.65;0.50;;;30.20;42.50;;;;;;5032950;28;20041;-76
2022/06/10 10:21:49;;;;;;;3.78;0.75;;;30.40;42.80;;;;;;5003811;28;20549;-76
2022/06/10 10:24:19;;;;;;;3.20;0.82;;;30.50;42.40;;;;;;5009581;28;20095;-77
2022/06/10 10:26:45;;;;;;;0.93;0.50;;;30.60;42.10;;;;;;5015329;28;20061;-77
2022/06/10 10:29:19;;;;;;;1.90;0.93;;;30.70;42.20;;;;;;4988272;28;20053;-76
2022/06/10 10:31:54;;;;;;;0.85;0.60;;;30.90;41.90;;;;;;5000143;28;20033;-76
2022/06/10 10:34:22;;;;;;;2.38;0.80;;;31.10;41.90;;;;;;5004065;28;20071;-76
2022/06/10 10:36:51;;;;;;;3.13;0.65;;;31.30;41.60;;;;;;5029049;28;20113;-75
2022/06/10 10:39:32;;;;;;;1.27;0.60;;;31.40;41.20;;;;;;5005648;28;20175;-76
2022/06/10 10:42:00;;;;;;;2.70;0.70;;;31.40;40.40;;;;;;5009771;28;20053;-76
2022/06/10 10:44:29;;;;;;;2.22;1.13;;;31.50;40.90;;;;;;5004740;28;20025;-76
2022/06/10 10:47:09;;;;;;;1.17;0.63;;;31.30;40.50;;;;;;4969986;28;20037;-76
2022/06/10 10:49:37;;;;;;;0.80;0.65;;;31.20;40.40;;;;;;5010828;28;20032;-76
2022/06/10 10:52:07;;;;;;;1.88;0.80;;;31.30;41.10;;;;;;5004339;28;20095;-77
2022/06/10 10:54:33;;;;;;;0.80;0.70;;;31.30;40.70;;;;;;5000157;28;20030;-77
2022/06/10 10:56:59;;;;;;;1.73;0.70;;;31.50;40.90;;;;;;5011474;28;20501;-76
2022/06/10 10:59:31;;;;;;;1.13;0.73;;;31.50;40.60;;;;;;5003221;28;20125;-77
2022/06/10 11:01:57;;;;;;;2.03;0.70;;;31.50;40.40;;;;;;5021197;28;20122;-77
2022/06/10 11:04:36;;;;;;;5.80;0.77;;;31.50;40.40;;;;;;4983755;28;20112;-76
2022/06/10 11:07:16;;;;;;;2.17;0.90;;;31.50;39.50;;;;;;4993646;28;20033;-77
2022/06/10 11:09:49;;;;;;;3.90;0.73;;;31.60;39.60;;;;;;4987056;28;20049;-77
2022/06/10 11:12:20;;;;;;;1.65;0.70;;;31.70;39.80;;;;;;5005216;28;20545;-75
2022/06/10 11:14:47;;;;;;;1.45;0.40;;;31.80;39.40;;;;;;5009415;28;20025;-75
2022/06/10 11:17:13;;;;;;;1.23;0.60;;;31.90;39.00;;;;;;4999590;28;20057;-76
2022/06/10 11:19:51;;;;;;;0.95;0.60;;;32.00;38.60;;;;;;5025090;28;20518;-76
2022/06/10 11:22:27;;;;;;;1.13;0.60;;;32.10;37.50;;;;;;5004919;28;20029;-75
2022/06/10 11:24:55;;;;;;;0.90;0.55;;;32.20;38.00;;;;;;5019715;28;20114;-75
2022/06/10 11:27:32;;;;;;;3.83;0.50;;;32.30;37.70;;;;;;5016424;28;20049;-76
2022/06/10 11:30:08;;;;;;;1.63;0.50;;;32.40;36.80;;;;;;5005603;28;20494;-77
2022/06/10 11:32:50;;;;;;;1.40;0.68;;;32.60;37.30;;;;;;5020708;28;20699;-76
2022/06/10 11:35:21;;;;;;;2.30;0.70;;;32.70;36.60;;;;;;5003549;28;20124;-77
2022/06/10 11:37:48;;;;;;;2.38;0.60;;;32.90;36.70;;;;;;5015218;28;20037;-78
2022/06/10 11:40:18;;;;;;;1.05;0.50;;;33.00;36.80;;;;;;4993882;28;20061;-77
2022/06/10 11:42:50;;;;;;;2.17;0.50;;;33.10;36.30;;;;;;4998924;28;20049;-76
2022/06/10 11:45:19;;;;;;;1.70;0.70;;;33.30;36.20;;;;;;4978232;28;20041;-77
2022/06/10 11:48:05;;;;;;;1.73;0.85;;;33.40;36.10;;;;;;5032416;28;20033;-76
2022/06/10 11:50:46;;;;;;;2.25;0.70;;;33.50;34.60;;;;;;4991230;28;20750;-77
2022/06/10 11:53:23;;;;;;;1.88;0.80;;;33.60;35.40;;;;;;5013485;28;20045;-76
2022/06/10 11:59:42;;;;;;;2.60;0.50;;;33.70;35.30;;;;;;4982131;28;20080;-77
2022/06/10 12:01:23;;;;;;;1.95;0.65;;;34.00;35.40;;;;;;4998749;28;20048;-77
2022/06/10 12:04:12;;;;;;;1.73;0.50;;;34.20;35.10;;;;;;5014464;28;20034;-77
2022/06/10 12:06:41;;;;;;;6.88;0.75;;;34.30;33.90;;;;;;5008206;28;20069;-76
2022/06/10 12:09:29;;;;;;;1.75;0.60;;;34.40;34.60;;;;;;4975993;28;20046;-77
2022/06/10 12:11:54;;;;;;;1.67;0.77;;;34.40;32.70;;;;;;5002132;28;20033;-77
2022/06/10 12:14:25;;;;;;;3.60;0.57;;;34.40;34.00;;;;;;5019650;28;20043;-76
2022/06/10 12:17:06;;;;;;;4.10;0.75;;;34.30;33.90;;;;;;5001635;28;20022;-77
2022/06/10 12:19:37;;;;;;;;;;;34.30;32.70;;;;;;5012806;28;20805;-77
2022/06/10 12:22:02;;;;;;;3.60;0.50;;;34.40;33.90;;;;;;5012688;28;20048;-76
2022/06/10 12:24:28;;;;;;;6.57;0.75;;;34.50;34.20;;;;;;5029614;28;20460;-76
2022/06/10 12:26:59;;;;;;;2.17;0.52;;;34.50;33.80;;;;;;5005423;28;20022;-77
2022/06/10 12:29:42;;;;;;;1.73;0.40;;;34.40;33.20;;;;;;5029095;28;20121;-77
2022/06/10 12:32:24;;;;;;;2.83;0.50;;;34.30;32.90;;;;;;5000203;28;20056;-77
2022/06/10 12:35:03;;;;;;;1.30;0.50;;;34.10;32.50;;;;;;5003100;28;20033;-76
2022/06/10 12:37:41;;;;;;;1.17;0.57;;;34.00;32.00;;;;;;5017465;28;20052;-76
2022/06/10 12:40:30;;;;;;;1.33;0.60;;;33.90;32.80;;;;;;5016327;28;20265;-76
2022/06/10 12:42:58;;;;;;;1.33;0.50;;;33.90;32.80;;;;;;5005827;28;20500;-77
2022/06/10 12:45:47;;;;;;;8.20;0.73;;;33.90;32.90;;;;;;5013721;28;20485;-77
2022/06/10 12:48:15;;;;;;;1.40;0.70;;;33.90;31.90;;;;;;5016328;28;20040;-78
2022/06/10 12:51:01;;;;;;;3.00;0.68;;;33.90;32.30;;;;;;5006572;28;20038;-75
2022/06/10 12:53:33;;;;;;;1.27;0.65;;;34.00;31.10;;;;;;5023154;28;20442;-77
2022/06/10 12:56:00;;;;;;;3.67;0.80;;;34.10;31.50;;;;;;5020922;28;20038;-76
2022/06/10 12:58:37;;;;;;;1.63;0.40;;;34.30;31.80;;;;;;5025197;28;20410;-77
2022/06/10 13:01:14;;;;;;;2.58;0.70;;;34.30;30.70;;;;;;5037338;28;20056;-77
2022/06/10 13:03:40;;;;;;;1.27;0.65;;;34.40;30.90;;;;;;5016874;28;20053;-77
2022/06/10 13:06:29;;;;;;;1.52;0.70;;;34.40;31.50;;;;;;4967595;28;20034;-77
2022/06/10 13:08:58;;;;;;;2.08;0.70;;;34.30;30.70;;;;;;4998796;28;20081;-77
2022/06/10 13:11:31;;;;;;;2.20;0.70;;;34.30;31.50;;;;;;5038264;28;20216;-77
2022/06/10 13:14:09;;;;;;;2.25;0.60;;;34.30;30.90;;;;;;5039669;28;20037;-77
2022/06/10 13:16:42;;;;;;;1.52;0.70;;;34.40;30.60;;;;;;5023343;28;20087;-78
2022/06/10 13:19:30;;;;;;;2.55;0.45;;;34.50;30.50;;;;;;5040069;28;20037;-77
2022/06/10 13:21:57;;;;;;;1.42;0.50;;;34.40;30.40;;;;;;5001490;28;20661;-77
2022/06/10 13:24:22;;;;;;;2.83;0.60;;;34.30;31.10;;;;;;5024238;28;20112;-78
2022/06/10 13:26:50;;;;;;;5.28;0.68;;;34.30;31.10;;;;;;5023368;28;20497;-76
2022/06/10 13:29:17;;;;;;;1.42;0.50;;;34.30;31.20;;;;;;5030115;28;20056;-75
2022/06/10 13:31:49;;;;;;;3.25;0.80;;;34.30;31.20;;;;;;5007282;28;20039;-76
2022/06/10 13:34:19;;;;;;;2.35;0.60;;;34.30;30.70;;;;;;5005266;28;21923;-75
2022/06/10 13:36:49;;;;;;;1.55;0.60;;;34.20;31.00;;;;;;5029207;28;20030;-76
2022/06/10 13:39:19;;;;;;;1.97;0.60;;;34.20;31.20;;;;;;5004607;28;20026;-77
2022/06/10 13:41:52;;;;;;;;;;;34.30;31.30;;;;;;5004200;28;20101;-77
2022/06/10 13:44:44;;;;;;;1.55;0.68;;;34.30;31.40;;;;;;5001911;28;19924;-77